Time;durP1;ratioP1;P1;durP2;ratioP2;P2;SDS_P1;SDS_P2;PMS_P1;PMS_P2;Temp;Humidity;BMP_temperature;BMP_pressure;BME280_temperature;BME280_humidity;BME280_pressure;Samples;Min_cycle;Max_cycle;Signal;HPM_P1;HPM_P2
2024/01/02 00:01:34;;;;;;;0.40;0.40;;;7.70;99.90;;;;;;5017596;28;20450;-81
2024/01/02 00:04:00;;;;;;;0.10;0.10;;;7.70;99.90;;;;;;5015657;28;20037;-80
2024/01/02 00:06:26;;;;;;;0.10;0.10;;;7.70;99.90;;;;;;5020033;28;20586;-80
2024/01/02 00:08:51;;;;;;;0.30;0.30;;;7.70;99.90;;;;;;5021960;28;20432;-80
2024/01/02 00:11:18;;;;;;;0.10;0.10;;;7.70;99.90;;;;;;5020173;28;20112;-80
2024/01/02 00:13:44;;;;;;;0.10;0.10;;;7.80;99.90;;;;;;5022070;28;20037;-80
2024/01/02 00:16:09;;;;;;;0.10;0.10;;;7.80;99.90;;;;;;5013979;28;20030;-80
2024/01/02 00:18:35;;;;;;;0.10;0.10;;;7.80;99.90;;;;;;5015490;28;20568;-80
2024/01/02 00:21:01;;;;;;;0.10;0.10;;;7.80;99.90;;;;;;5019098;28;20026;-79
2024/01/02 00:23:26;;;;;;;0.10;0.10;;;7.80;99.90;;;;;;5021414;28;20710;-80
2024/01/02 00:25:52;;;;;;;0.10;0.10;;;7.80;99.90;;;;;;5019538;28;20021;-79
2024/01/02 00:28:18;;;;;;;0.10;0.10;;;7.80;99.90;;;;;;5023343;28;20729;-80
2024/01/02 00:30:44;;;;;;;0.00;0.00;;;7.80;99.90;;;;;;5023136;28;20037;-80
2024/01/02 00:33:10;;;;;;;0.10;0.10;;;7.80;99.90;;;;;;5021005;28;20083;-80
2024/01/02 00:35:36;;;;;;;0.10;0.10;;;7.80;99.90;;;;;;5016281;28;20037;-79
2024/01/02 00:38:03;;;;;;;0.10;0.10;;;7.80;99.90;;;;;;5020151;28;20036;-79
2024/01/02 00:40:29;;;;;;;0.10;0.10;;;7.80;99.90;;;;;;5016025;28;20053;-79
2024/01/02 00:42:55;;;;;;;0.10;0.10;;;7.80;99.90;;;;;;5024994;28;20099;-80
2024/01/02 00:45:20;;;;;;;0.10;0.10;;;7.70;99.90;;;;;;5024791;28;20037;-79
2024/01/02 00:47:46;;;;;;;0.10;0.10;;;7.70;99.90;;;;;;5026530;28;20021;-79
2024/01/02 00:50:12;;;;;;;0.10;0.10;;;7.70;99.90;;;;;;5024256;28;20022;-80
2024/01/02 00:52:38;;;;;;;0.88;0.85;;;7.70;99.90;;;;;;5029483;28;20988;-81
2024/01/02 00:55:05;;;;;;;0.10;0.10;;;7.70;99.90;;;;;;5024955;28;20405;-82
2024/01/02 00:57:31;;;;;;;0.75;0.75;;;7.70;99.90;;;;;;5023362;28;20034;-80
2024/01/02 00:59:58;;;;;;;0.20;0.20;;;7.70;99.90;;;;;;5023777;28;20041;-80
2024/01/02 01:02:23;;;;;;;;;;;7.70;99.90;;;;;;5022488;28;20035;-80
2024/01/02 01:04:49;;;;;;;0.53;0.53;;;7.70;99.90;;;;;;5021591;28;20035;-81
2024/01/02 01:07:15;;;;;;;0.10;0.10;;;7.70;99.90;;;;;;5024370;28;20034;-81
2024/01/02 01:09:41;;;;;;;0.10;0.10;;;7.70;99.90;;;;;;5021609;28;20653;-81
2024/01/02 01:12:07;;;;;;;0.10;0.10;;;7.60;99.90;;;;;;5024572;28;20026;-81
2024/01/02 01:14:33;;;;;;;0.10;0.10;;;7.70;99.90;;;;;;5019994;28;20030;-80
2024/01/02 01:16:59;;;;;;;0.10;0.10;;;7.70;99.90;;;;;;5024330;28;20036;-80
2024/01/02 01:19:25;;;;;;;0.10;0.10;;;7.70;99.90;;;;;;5023171;28;20041;-80
2024/01/02 01:21:51;;;;;;;0.10;0.10;;;7.70;99.90;;;;;;5018075;28;20040;-81
2024/01/02 01:24:17;;;;;;;0.00;0.00;;;7.70;99.90;;;;;;5026690;28;20056;-80
2024/01/02 01:26:43;;;;;;;0.10;0.10;;;7.70;99.90;;;;;;5024077;28;20072;-80
2024/01/02 01:29:09;;;;;;;0.10;0.10;;;7.70;99.90;;;;;;5027116;28;20112;-80
2024/01/02 01:31:34;;;;;;;0.10;0.10;;;7.70;99.90;;;;;;5023288;28;20026;-80
2024/01/02 01:34:00;;;;;;;0.80;0.80;;;7.70;99.90;;;;;;5015723;28;20488;-79
2024/01/02 01:36:26;;;;;;;0.10;0.10;;;7.70;99.90;;;;;;5024778;28;20025;-80
2024/01/02 01:38:52;;;;;;;0.10;0.10;;;7.60;99.90;;;;;;5021649;28;20025;-79
2024/01/02 01:41:18;;;;;;;0.10;0.10;;;7.60;99.90;;;;;;5024215;28;20045;-79
2024/01/02 01:43:45;;;;;;;0.10;0.10;;;7.60;99.90;;;;;;5025143;28;20115;-79
2024/01/02 01:46:11;;;;;;;0.10;0.10;;;7.70;99.90;;;;;;5023562;28;20032;-79
2024/01/02 01:48:38;;;;;;;0.10;0.10;;;7.70;99.90;;;;;;5024099;28;20030;-79
2024/01/02 01:51:04;;;;;;;0.10;0.10;;;7.60;99.90;;;;;;5019205;28;21152;-79
2024/01/02 01:53:30;;;;;;;0.10;0.10;;;7.70;99.90;;;;;;5024544;28;20794;-79
2024/01/02 01:55:58;;;;;;;0.10;0.10;;;7.70;99.90;;;;;;5024140;28;20907;-78
2024/01/02 01:58:24;;;;;;;0.10;0.10;;;7.70;99.90;;;;;;5023477;28;20557;-82
2024/01/02 02:00:50;;;;;;;0.10;0.10;;;7.60;99.90;;;;;;5023159;28;20057;-80
2024/01/02 02:03:17;;;;;;;0.20;0.20;;;7.60;99.90;;;;;;5023439;28;20121;-81
2024/01/02 02:05:44;;;;;;;0.10;0.10;;;7.60;99.90;;;;;;5023156;28;20598;-81
2024/01/02 02:08:10;;;;;;;;;;;7.60;99.90;;;;;;5021607;28;20026;-80
2024/01/02 02:10:35;;;;;;;0.20;0.20;;;7.60;99.90;;;;;;5023235;28;20592;-80
2024/01/02 02:13:01;;;;;;;0.10;0.10;;;7.60;99.90;;;;;;5020892;28;20041;-80
2024/01/02 02:15:27;;;;;;;0.20;0.20;;;7.60;99.90;;;;;;5022812;28;20033;-80
2024/01/02 02:17:53;;;;;;;0.20;0.20;;;7.60;99.90;;;;;;5023820;28;20033;-80
2024/01/02 02:20:18;;;;;;;0.10;0.10;;;7.50;99.90;;;;;;5023301;28;20092;-79
2024/01/02 02:22:51;;;;;;;0.10;0.10;;;7.50;99.90;;;;;;5022199;28;20049;-79
2024/01/02 02:25:18;;;;;;;0.10;0.10;;;7.60;99.90;;;;;;5023525;28;20028;-80
2024/01/02 02:27:45;;;;;;;0.10;0.10;;;7.60;99.90;;;;;;5013067;28;20036;-80
2024/01/02 02:30:11;;;;;;;0.10;0.10;;;7.50;99.90;;;;;;5022303;28;20433;-80
2024/01/02 02:32:37;;;;;;;0.10;0.10;;;7.50;99.90;;;;;;5026366;28;20064;-80
2024/01/02 02:35:04;;;;;;;0.10;0.10;;;7.50;99.90;;;;;;5018931;28;20033;-80
2024/01/02 02:37:30;;;;;;;0.10;0.10;;;7.50;99.90;;;;;;5025522;28;20040;-80
2024/01/02 02:39:56;;;;;;;0.10;0.10;;;7.50;99.90;;;;;;5018997;28;20029;-80
2024/01/02 02:42:21;;;;;;;0.10;0.10;;;7.50;99.90;;;;;;5017450;28;20475;-80
2024/01/02 02:44:47;;;;;;;0.00;0.00;;;7.60;99.90;;;;;;5021179;28;20219;-80
2024/01/02 02:47:13;;;;;;;0.10;0.10;;;7.60;99.90;;;;;;5022308;28;20033;-79
2024/01/02 02:49:39;;;;;;;0.10;0.10;;;7.60;99.90;;;;;;5022957;28;20076;-79
2024/01/02 02:52:05;;;;;;;0.10;0.10;;;7.60;99.90;;;;;;5018356;28;20550;-80
2024/01/02 02:54:31;;;;;;;0.95;0.88;;;7.70;99.90;;;;;;5019086;28;20069;-79
2024/01/02 02:56:56;;;;;;;0.30;0.30;;;7.70;99.90;;;;;;5022807;28;20460;-79
2024/01/02 02:59:22;;;;;;;0.10;0.10;;;7.70;99.90;;;;;;5022056;28;20033;-79
2024/01/02 03:01:48;;;;;;;0.10;0.10;;;7.70;99.90;;;;;;5017481;28;20441;-79
2024/01/02 03:04:14;;;;;;;0.10;0.10;;;7.70;99.90;;;;;;5017905;28;20505;-79
2024/01/02 03:06:40;;;;;;;0.38;0.38;;;7.80;99.90;;;;;;5022467;28;20036;-79
2024/01/02 03:09:06;;;;;;;0.10;0.10;;;7.80;99.90;;;;;;5022070;28;20022;-79
2024/01/02 03:11:32;;;;;;;0.10;0.10;;;7.80;99.90;;;;;;5019156;28;20121;-78
2024/01/02 03:13:58;;;;;;;0.10;0.10;;;7.80;99.90;;;;;;5020246;28;20047;-78
2024/01/02 03:16:24;;;;;;;0.10;0.10;;;7.80;99.90;;;;;;5017705;28;20042;-78
2024/01/02 03:18:50;;;;;;;0.10;0.10;;;7.80;99.90;;;;;;5021417;28;20049;-78
2024/01/02 03:21:16;;;;;;;0.10;0.10;;;7.80;99.90;;;;;;5022068;28;20033;-78
2024/01/02 03:23:42;;;;;;;0.10;0.10;;;7.80;99.90;;;;;;5022218;28;20034;-78
2024/01/02 03:26:11;;;;;;;0.10;0.10;;;7.90;99.90;;;;;;5022603;28;20022;-78
2024/01/02 03:28:37;;;;;;;0.10;0.10;;;7.80;99.90;;;;;;5018285;28;20029;-77
2024/01/02 03:31:05;;;;;;;0.10;0.10;;;7.80;99.90;;;;;;5012050;28;20037;-77
2024/01/02 03:33:31;;;;;;;0.10;0.10;;;7.80;99.90;;;;;;5019529;28;20049;-78
2024/01/02 03:35:57;;;;;;;0.03;0.03;;;7.80;99.90;;;;;;5020021;28;20489;-80
2024/01/02 03:38:23;;;;;;;0.10;0.10;;;7.90;99.90;;;;;;5018517;28;20029;-80
2024/01/02 03:40:50;;;;;;;0.10;0.10;;;7.90;99.90;;;;;;5020004;28;20084;-80
2024/01/02 03:43:15;;;;;;;0.28;0.28;;;7.80;99.90;;;;;;5020926;28;20042;-80
2024/01/02 03:45:41;;;;;;;0.10;0.10;;;7.80;99.90;;;;;;5022180;28;20037;-81
2024/01/02 03:48:07;;;;;;;0.00;0.00;;;7.80;99.90;;;;;;5018260;28;20492;-80
2024/01/02 03:50:32;;;;;;;0.10;0.10;;;7.80;99.90;;;;;;5022297;28;20170;-80
2024/01/02 03:52:58;;;;;;;0.22;0.22;;;7.80;99.90;;;;;;5020391;28;20029;-80
2024/01/02 03:55:23;;;;;;;0.10;0.10;;;7.80;99.90;;;;;;5025769;28;20057;-80
2024/01/02 03:57:49;;;;;;;0.10;0.10;;;7.70;99.90;;;;;;5021545;28;20022;-80
2024/01/02 04:00:16;;;;;;;0.10;0.10;;;7.80;99.90;;;;;;5021287;28;20030;-80
2024/01/02 04:02:42;;;;;;;0.10;0.10;;;7.80;99.90;;;;;;5019582;28;20404;-79
2024/01/02 04:05:07;;;;;;;0.15;0.15;;;7.80;99.90;;;;;;5019158;28;20029;-79
2024/01/02 04:07:33;;;;;;;0.10;0.10;;;7.70;99.90;;;;;;5022025;28;20040;-80
2024/01/02 04:09:59;;;;;;;0.10;0.10;;;7.80;99.90;;;;;;5022372;28;20649;-80
2024/01/02 04:12:25;;;;;;;0.10;0.10;;;7.80;99.90;;;;;;5021597;28;20572;-80
2024/01/02 04:14:50;;;;;;;0.10;0.10;;;7.90;99.90;;;;;;5016885;28;20033;-81
2024/01/02 04:17:16;;;;;;;0.10;0.10;;;7.90;99.90;;;;;;5021296;28;20030;-79
2024/01/02 04:19:42;;;;;;;0.10;0.10;;;7.80;99.90;;;;;;5025419;28;20444;-80
2024/01/02 04:22:07;;;;;;;0.10;0.10;;;7.80;99.90;;;;;;5024435;28;20148;-80
2024/01/02 04:24:33;;;;;;;0.10;0.10;;;7.80;99.90;;;;;;5025529;28;20025;-81
2024/01/02 04:26:59;;;;;;;0.10;0.10;;;7.80;99.90;;;;;;5025213;28;20030;-79
2024/01/02 04:29:24;;;;;;;0.10;0.10;;;7.70;99.90;;;;;;5021466;28;20087;-80
2024/01/02 04:31:50;;;;;;;0.10;0.10;;;7.80;99.90;;;;;;5025118;28;20086;-80
2024/01/02 04:34:16;;;;;;;0.10;0.10;;;7.70;99.90;;;;;;5025374;28;20033;-79
2024/01/02 04:36:43;;;;;;;0.10;0.10;;;7.80;99.90;;;;;;5026667;28;20036;-79
2024/01/02 04:39:09;;;;;;;0.20;0.20;;;7.70;99.90;;;;;;5027453;28;20032;-79
2024/01/02 04:41:35;;;;;;;0.80;0.80;;;7.60;99.90;;;;;;5022455;28;20144;-79
2024/01/02 04:44:00;;;;;;;0.10;0.10;;;7.60;99.90;;;;;;5020845;28;20072;-79
2024/01/02 04:46:30;;;;;;;0.10;0.10;;;7.70;99.90;;;;;;5020894;28;20036;-80
2024/01/02 04:48:56;;;;;;;0.10;0.10;;;7.70;99.90;;;;;;5020456;28;20026;-80
2024/01/02 04:51:21;;;;;;;0.10;0.10;;;7.70;99.90;;;;;;5025366;28;20037;-80
2024/01/02 04:53:47;;;;;;;0.10;0.10;;;7.70;99.90;;;;;;5024320;28;20100;-80
2024/01/02 04:56:13;;;;;;;0.10;0.10;;;7.70;99.90;;;;;;5023974;28;20096;-79
2024/01/02 04:58:38;;;;;;;0.10;0.10;;;7.70;99.90;;;;;;5024886;28;20033;-80
2024/01/02 05:01:05;;;;;;;0.10;0.10;;;7.60;99.90;;;;;;5019967;28;20095;-80
2024/01/02 05:03:30;;;;;;;0.10;0.10;;;7.70;99.90;;;;;;5021022;28;20037;-80
2024/01/02 05:05:56;;;;;;;0.10;0.10;;;7.70;99.90;;;;;;5021401;28;20031;-80
2024/01/02 05:08:22;;;;;;;0.50;0.50;;;7.70;99.90;;;;;;5020832;28;20112;-80
2024/01/02 05:10:47;;;;;;;0.10;0.10;;;7.70;99.90;;;;;;5024362;28;20160;-80
2024/01/02 05:13:13;;;;;;;0.75;0.40;;;7.70;99.90;;;;;;5025093;28;20037;-80
2024/01/02 05:15:39;;;;;;;0.10;0.10;;;7.70;99.90;;;;;;5024121;28;20105;-80
2024/01/02 05:18:05;;;;;;;0.10;0.10;;;7.70;99.90;;;;;;5022631;28;20021;-80
2024/01/02 05:20:31;;;;;;;0.10;0.10;;;7.70;99.90;;;;;;5023956;28;20625;-80
2024/01/02 05:23:03;;;;;;;0.10;0.10;;;7.60;99.90;;;;;;5020288;28;20034;-80
2024/01/02 05:25:31;;;;;;;0.20;0.20;;;7.70;99.90;;;;;;5023441;28;20033;-80
2024/01/02 05:27:57;;;;;;;0.10;0.10;;;7.70;99.90;;;;;;5015152;28;20033;-80
2024/01/02 05:30:23;;;;;;;0.10;0.10;;;7.70;99.90;;;;;;5022452;28;20029;-80
2024/01/02 05:32:49;;;;;;;0.10;0.10;;;7.70;99.60;;;;;;5020037;28;20033;-80
2024/01/02 05:35:15;;;;;;;0.10;0.10;;;7.80;99.80;;;;;;5020349;28;20879;-80
2024/01/02 05:37:41;;;;;;;0.10;0.10;;;7.80;99.90;;;;;;5029271;28;20044;-80
2024/01/02 05:40:09;;;;;;;0.10;0.10;;;7.70;99.90;;;;;;5023597;28;20026;-80
2024/01/02 05:42:34;;;;;;;0.10;0.10;;;7.60;99.90;;;;;;5017971;28;20850;-80
2024/01/02 05:45:00;;;;;;;0.10;0.10;;;7.50;99.90;;;;;;5022717;28;20026;-79
2024/01/02 05:47:26;;;;;;;0.10;0.10;;;7.50;99.90;;;;;;5024076;28;20504;-79
2024/01/02 05:49:51;;;;;;;0.10;0.10;;;7.50;99.90;;;;;;5022414;28;20030;-79
2024/01/02 05:52:17;;;;;;;0.10;0.10;;;7.40;99.90;;;;;;5022565;28;20500;-79
2024/01/02 05:54:43;;;;;;;0.10;0.10;;;7.40;99.90;;;;;;5021286;28;20034;-78
2024/01/02 05:57:10;;;;;;;0.10;0.10;;;7.40;99.90;;;;;;5024351;28;20056;-79
2024/01/02 05:59:36;;;;;;;0.10;0.10;;;7.40;99.90;;;;;;5022934;28;20045;-79
2024/01/02 06:02:01;;;;;;;0.10;0.10;;;7.40;99.90;;;;;;5020266;28;20033;-79
2024/01/02 06:04:27;;;;;;;0.20;0.20;;;7.30;99.90;;;;;;5021620;28;20030;-79
2024/01/02 06:06:53;;;;;;;0.10;0.10;;;7.40;99.90;;;;;;5023863;28;20030;-79
2024/01/02 06:09:19;;;;;;;0.10;0.10;;;7.40;99.90;;;;;;5023032;28;20040;-79
2024/01/02 06:11:44;;;;;;;0.10;0.10;;;7.40;99.90;;;;;;5023734;28;20468;-79
2024/01/02 06:14:11;;;;;;;0.10;0.10;;;7.40;99.90;;;;;;5021823;28;20095;-79
2024/01/02 06:16:38;;;;;;;0.38;0.38;;;7.40;99.90;;;;;;5023011;28;20034;-79
2024/01/02 06:19:04;;;;;;;0.10;0.10;;;7.40;99.90;;;;;;5022184;28;20107;-79
2024/01/02 06:21:39;;;;;;;0.10;0.10;;;7.30;99.90;;;;;;5023417;28;20045;-78
2024/01/02 06:24:05;;;;;;;0.30;0.30;;;7.40;99.90;;;;;;5022147;28;20048;-77
2024/01/02 06:26:30;;;;;;;0.10;0.10;;;7.40;99.90;;;;;;5019715;28;20025;-77
2024/01/02 06:28:57;;;;;;;0.20;0.20;;;7.40;99.90;;;;;;5019832;28;20047;-77
2024/01/02 06:31:22;;;;;;;0.10;0.10;;;7.40;99.90;;;;;;5020216;28;20068;-77
2024/01/02 06:33:48;;;;;;;0.10;0.10;;;7.40;99.90;;;;;;5016259;28;20588;-77
2024/01/02 06:36:14;;;;;;;0.10;0.10;;;7.40;99.90;;;;;;5028553;28;20813;-77
2024/01/02 06:38:40;;;;;;;0.10;0.10;;;7.50;99.90;;;;;;5021708;28;20028;-76
2024/01/02 06:41:06;;;;;;;0.10;0.10;;;7.50;99.90;;;;;;5017483;28;20049;-77
2024/01/02 06:43:32;;;;;;;0.25;0.25;;;7.60;99.90;;;;;;5018365;28;20705;-78
2024/01/02 06:45:57;;;;;;;0.10;0.10;;;7.40;99.90;;;;;;5022739;28;20025;-78
2024/01/02 06:48:23;;;;;;;0.10;0.10;;;7.50;99.90;;;;;;5023350;28;20039;-78
2024/01/02 06:50:49;;;;;;;0.10;0.10;;;7.60;99.90;;;;;;5012158;28;20034;-77
2024/01/02 06:53:14;;;;;;;0.10;0.10;;;7.70;99.70;;;;;;5022889;28;20025;-77
2024/01/02 06:55:40;;;;;;;6.45;1.45;;;7.70;99.00;;;;;;5020947;28;20119;-77
2024/01/02 06:58:06;;;;;;;0.10;0.10;;;7.80;98.70;;;;;;5016363;28;20026;-79
2024/01/02 07:00:35;;;;;;;0.10;0.10;;;7.80;98.00;;;;;;5021608;28;20033;-79
2024/01/02 07:03:00;;;;;;;0.10;0.10;;;7.80;97.00;;;;;;5020257;28;20033;-80
2024/01/02 07:05:27;;;;;;;0.15;0.15;;;7.80;97.30;;;;;;5030000;28;20026;-79
2024/01/02 07:07:52;;;;;;;0.10;0.10;;;7.70;98.60;;;;;;5021776;28;20098;-79
2024/01/02 07:10:18;;;;;;;0.10;0.10;;;7.80;97.70;;;;;;5015985;28;20595;-79
2024/01/02 07:12:44;;;;;;;0.00;0.00;;;7.70;97.80;;;;;;5017395;28;20042;-80
2024/01/02 07:15:10;;;;;;;0.10;0.10;;;7.80;96.90;;;;;;5021583;28;20301;-80
2024/01/02 07:17:36;;;;;;;0.10;0.10;;;7.90;95.90;;;;;;5021763;28;20038;-80
2024/01/02 07:20:02;;;;;;;1.52;1.13;;;8.00;95.20;;;;;;5018166;28;20036;-79
2024/01/02 07:22:28;;;;;;;0.10;0.10;;;8.00;95.00;;;;;;5018966;28;20060;-79
2024/01/02 07:24:54;;;;;;;0.10;0.10;;;8.00;94.80;;;;;;5049792;28;20041;-79
2024/01/02 07:27:20;;;;;;;0.10;0.10;;;8.00;94.80;;;;;;5018598;28;20495;-79
2024/01/02 07:29:46;;;;;;;0.10;0.10;;;8.10;93.70;;;;;;5020621;28;20260;-79
2024/01/02 07:32:12;;;;;;;0.10;0.10;;;8.00;94.50;;;;;;5023029;28;20032;-79
2024/01/02 07:34:37;;;;;;;0.10;0.10;;;8.10;93.50;;;;;;5022307;28;20120;-79
2024/01/02 07:37:03;;;;;;;0.10;0.10;;;8.10;93.60;;;;;;5025516;28;20054;-78
2024/01/02 07:39:29;;;;;;;0.10;0.10;;;8.10;93.00;;;;;;5020625;28;20069;-78
2024/01/02 07:41:55;;;;;;;0.10;0.10;;;8.10;93.00;;;;;;5021866;28;20053;-78
2024/01/02 07:44:21;;;;;;;0.20;0.20;;;8.00;93.40;;;;;;5021569;28;20488;-78
2024/01/02 07:46:47;;;;;;;0.10;0.10;;;8.00;93.30;;;;;;5022049;28;20075;-78
2024/01/02 07:49:13;;;;;;;0.30;0.30;;;8.00;93.50;;;;;;5021936;28;20537;-79
2024/01/02 07:51:39;;;;;;;0.10;0.10;;;8.00;93.80;;;;;;5021795;28;20025;-79
2024/01/02 07:54:04;;;;;;;0.10;0.10;;;8.00;93.60;;;;;;5028055;28;20029;-78
2024/01/02 07:56:31;;;;;;;0.10;0.10;;;8.00;93.90;;;;;;5021856;28;20095;-78
2024/01/02 07:58:57;;;;;;;0.10;0.10;;;8.00;93.60;;;;;;5021905;28;20654;-79
2024/01/02 08:01:22;;;;;;;0.10;0.10;;;8.10;93.40;;;;;;5019818;28;20033;-78
2024/01/02 08:03:48;;;;;;;0.10;0.10;;;8.20;93.00;;;;;;5016060;28;20938;-78
2024/01/02 08:06:14;;;;;;;0.10;0.10;;;8.20;92.80;;;;;;5020276;28;20076;-78
2024/01/02 08:08:40;;;;;;;0.10;0.10;;;8.20;92.70;;;;;;5022558;28;20025;-78
2024/01/02 08:11:08;;;;;;;0.10;0.10;;;8.20;92.50;;;;;;5021842;28;20037;-78
2024/01/02 08:13:34;;;;;;;0.20;0.20;;;8.20;92.50;;;;;;5014409;28;20033;-78
2024/01/02 08:16:00;;;;;;;0.10;0.10;;;8.30;92.40;;;;;;5021322;28;20055;-78
2024/01/02 08:18:25;;;;;;;0.10;0.10;;;8.30;92.30;;;;;;5014570;28;20053;-78
2024/01/02 08:20:51;;;;;;;0.10;0.10;;;8.30;91.90;;;;;;5021713;28;20564;-78
2024/01/02 08:23:17;;;;;;;0.10;0.10;;;8.40;92.00;;;;;;5021836;28;20485;-78
2024/01/02 08:25:42;;;;;;;0.00;0.00;;;8.40;91.50;;;;;;5024930;28;20731;-78
2024/01/02 08:28:09;;;;;;;0.00;0.00;;;8.40;91.50;;;;;;5022144;28;20902;-78
2024/01/02 08:30:34;;;;;;;1.00;1.00;;;8.50;90.80;;;;;;5007899;28;20747;-78
2024/01/02 08:33:00;;;;;;;0.20;0.20;;;8.40;91.20;;;;;;5015578;28;20025;-78
2024/01/02 08:35:26;;;;;;;0.10;0.10;;;8.50;90.70;;;;;;5019449;28;20068;-79
2024/01/02 08:37:51;;;;;;;0.10;0.10;;;8.60;90.00;;;;;;5025718;28;20025;-78
2024/01/02 08:40:17;;;;;;;0.10;0.10;;;8.70;90.00;;;;;;5011326;28;20797;-79
2024/01/02 08:42:43;;;;;;;0.10;0.10;;;8.70;89.00;;;;;;5010264;28;20524;-78
2024/01/02 08:45:10;;;;;;;0.10;0.10;;;8.80;88.80;;;;;;5019665;28;20128;-78
2024/01/02 08:47:38;;;;;;;0.10;0.10;;;8.80;88.90;;;;;;5007396;28;20188;-79
2024/01/02 08:50:06;;;;;;;0.10;0.10;;;8.80;89.40;;;;;;5013378;28;20033;-77
2024/01/02 08:52:32;;;;;;;0.32;0.32;;;8.90;90.00;;;;;;5033969;28;20041;-78
2024/01/02 08:54:59;;;;;;;0.00;0.00;;;8.90;89.50;;;;;;5019605;28;20801;-78
2024/01/02 08:57:24;;;;;;;;;;;8.90;89.00;;;;;;5016119;28;20029;-78
2024/01/02 08:59:50;;;;;;;0.10;0.10;;;9.00;88.90;;;;;;5015992;28;20365;-79
2024/01/02 09:02:16;;;;;;;0.08;0.08;;;9.00;88.40;;;;;;5022344;28;20496;-78
2024/01/02 09:04:43;;;;;;;0.10;0.10;;;9.00;88.40;;;;;;5025590;28;20489;-79
2024/01/02 09:07:09;;;;;;;0.10;0.10;;;9.00;89.30;;;;;;5025416;28;20060;-79
2024/01/02 09:09:35;;;;;;;0.10;0.10;;;8.90;88.70;;;;;;5017573;28;20103;-78
2024/01/02 09:12:02;;;;;;;0.10;0.10;;;9.00;88.50;;;;;;5023602;28;20026;-78
2024/01/02 09:14:28;;;;;;;0.10;0.10;;;8.90;88.60;;;;;;5027190;28;20048;-78
2024/01/02 09:16:54;;;;;;;0.10;0.10;;;8.90;90.00;;;;;;5026730;28;20061;-79
2024/01/02 09:19:20;;;;;;;0.10;0.10;;;8.70;90.70;;;;;;5024712;28;20367;-79
2024/01/02 09:21:45;;;;;;;0.10;0.10;;;8.80;90.60;;;;;;5022442;28;20079;-79
2024/01/02 09:24:13;;;;;;;0.10;0.10;;;8.90;90.20;;;;;;5024356;28;20041;-79
2024/01/02 09:26:44;;;;;;;0.00;0.00;;;8.90;89.70;;;;;;5015186;28;20041;-79
2024/01/02 09:29:09;;;;;;;0.10;0.10;;;9.00;88.60;;;;;;5019069;28;20396;-81
2024/01/02 09:31:35;;;;;;;0.10;0.10;;;9.00;88.50;;;;;;5023320;28;20022;-79
2024/01/02 09:34:01;;;;;;;0.10;0.10;;;9.00;87.80;;;;;;5025305;28;20154;-79
2024/01/02 09:36:29;;;;;;;0.40;0.40;;;9.00;88.30;;;;;;5026448;28;20029;-78
2024/01/02 09:38:55;;;;;;;0.95;0.95;;;9.10;87.70;;;;;;5019973;28;20034;-76
2024/01/02 09:41:55;;;;;;;0.10;0.10;;;9.10;87.50;;;;;;5017803;28;20500;-77
2024/01/02 09:44:39;;;;;;;0.10;0.10;;;9.20;87.20;;;;;;5025685;28;20053;-76
2024/01/02 09:47:19;;;;;;;0.10;0.10;;;9.40;85.80;;;;;;5017899;28;20040;-76
2024/01/02 09:50:17;;;;;;;0.10;0.10;;;9.40;86.80;;;;;;5012679;28;20568;-77
2024/01/02 09:52:57;;;;;;;0.10;0.10;;;9.50;87.40;;;;;;5024496;28;20052;-77
2024/01/02 09:55:31;;;;;;;0.10;0.10;;;9.60;84.90;;;;;;5024362;28;20103;-76
2024/01/02 09:58:09;;;;;;;0.10;0.10;;;9.60;84.90;;;;;;5024307;28;20029;-79
2024/01/02 10:00:50;;;;;;;0.08;0.08;;;9.60;86.30;;;;;;5046978;28;20096;-77
2024/01/02 10:03:36;;;;;;;0.10;0.10;;;9.80;85.10;;;;;;5024697;28;20037;-77
2024/01/02 10:06:34;;;;;;;0.08;0.08;;;10.00;84.00;;;;;;5025656;28;20086;-78
2024/01/02 10:09:27;;;;;;;0.10;0.10;;;9.90;85.30;;;;;;4994341;28;20420;-78
2024/01/02 10:12:34;;;;;;;1.17;1.08;;;9.80;85.40;;;;;;5017849;28;20034;-78
2024/01/02 10:15:37;;;;;;;0.10;0.10;;;9.60;85.70;;;;;;5009937;28;20056;-78
2024/01/02 10:18:16;;;;;;;0.10;0.10;;;9.60;85.40;;;;;;5018347;28;20122;-77
2024/01/02 10:21:00;;;;;;;0.10;0.10;;;9.70;85.60;;;;;;5020625;28;20062;-78
2024/01/02 10:23:41;;;;;;;0.10;0.10;;;9.60;86.00;;;;;;5016080;28;20029;-76
2024/01/02 10:26:12;;;;;;;0.05;0.05;;;9.60;84.50;;;;;;5017460;28;20572;-77
2024/01/02 10:28:41;;;;;;;0.10;0.10;;;9.60;86.00;;;;;;5023732;28;20025;-77
2024/01/02 10:31:29;;;;;;;0.10;0.10;;;9.60;85.30;;;;;;5023079;28;20687;-78
2024/01/02 10:34:00;;;;;;;0.00;0.00;;;9.60;84.20;;;;;;5017675;28;20827;-77
2024/01/02 10:36:27;;;;;;;0.00;0.00;;;9.60;86.90;;;;;;5027383;28;20056;-76
2024/01/02 10:39:08;;;;;;;0.00;0.00;;;9.70;86.40;;;;;;5021236;28;20532;-75
2024/01/02 10:42:19;;;;;;;0.10;0.10;;;9.70;86.80;;;;;;5021793;28;20107;-77
2024/01/02 10:45:00;;;;;;;0.10;0.10;;;10.00;88.30;;;;;;5020042;28;20045;-76
2024/01/02 10:47:32;;;;;;;0.15;0.15;;;10.00;89.00;;;;;;5023671;28;20116;-76
2024/01/02 10:50:03;;;;;;;0.20;0.20;;;10.00;88.20;;;;;;5023026;28;20034;-79
2024/01/02 10:52:37;;;;;;;0.10;0.10;;;10.00;87.00;;;;;;5017030;28;20602;-76
2024/01/02 10:55:08;;;;;;;0.03;0.03;;;10.10;85.40;;;;;;5022217;28;20029;-77
2024/01/02 10:58:01;;;;;;;0.00;0.00;;;10.10;85.90;;;;;;5019168;28;20041;-77
2024/01/02 11:00:32;;;;;;;0.05;0.05;;;10.10;84.10;;;;;;5016218;28;20468;-77
2024/01/02 11:03:07;;;;;;;0.17;0.17;;;10.20;83.40;;;;;;5020510;28;20041;-77
2024/01/02 11:05:45;;;;;;;0.08;0.08;;;10.10;82.90;;;;;;5023379;28;20022;-76
2024/01/02 11:08:21;;;;;;;0.00;0.00;;;10.10;81.70;;;;;;5023451;28;20037;-78
2024/01/02 11:10:57;;;;;;;0.10;0.10;;;10.10;81.30;;;;;;5023272;28;20022;-78
2024/01/02 11:13:25;;;;;;;0.00;0.00;;;10.20;80.30;;;;;;5023523;28;20037;-77
2024/01/02 11:15:56;;;;;;;0.10;0.10;;;10.30;80.10;;;;;;5022351;28;20025;-77
2024/01/02 11:18:24;;;;;;;0.10;0.10;;;10.40;78.70;;;;;;5023466;28;20030;-77
2024/01/02 11:21:11;;;;;;;0.00;0.00;;;10.50;78.90;;;;;;5021132;28;20021;-77
2024/01/02 11:23:46;;;;;;;0.00;0.00;;;10.60;78.20;;;;;;5018489;28;20562;-77
2024/01/02 11:26:20;;;;;;;0.00;0.00;;;10.80;78.80;;;;;;5015283;28;20105;-77
2024/01/02 11:28:49;;;;;;;0.08;0.08;;;11.00;76.70;;;;;;5023360;28;20033;-76
2024/01/02 11:31:16;;;;;;;0.00;0.00;;;11.30;77.40;;;;;;5015811;28;20112;-76
2024/01/02 11:34:04;;;;;;;0.00;0.00;;;11.20;75.00;;;;;;5043642;28;20040;-76
2024/01/02 11:36:48;;;;;;;0.00;0.00;;;11.00;76.50;;;;;;5023742;28;20088;-78
2024/01/02 11:39:18;;;;;;;0.00;0.00;;;10.90;75.50;;;;;;5042713;28;20029;-78
2024/01/02 11:42:15;;;;;;;0.00;0.00;;;11.00;75.50;;;;;;5011861;28;20054;-77
2024/01/02 11:45:04;;;;;;;0.10;0.10;;;11.10;77.80;;;;;;5018668;28;20110;-77
2024/01/02 11:47:40;;;;;;;0.00;0.00;;;11.30;75.70;;;;;;5020479;28;20057;-77
2024/01/02 11:50:08;;;;;;;0.45;0.45;;;11.50;76.50;;;;;;5021258;28;20108;-78
2024/01/02 11:52:48;;;;;;;0.00;0.00;;;11.60;75.80;;;;;;5022538;28;20086;-78
2024/01/02 11:56:03;;;;;;;0.00;0.00;;;11.70;78.60;;;;;;5020129;28;20112;-76
2024/01/02 11:58:32;;;;;;;0.00;0.00;;;11.70;80.20;;;;;;5018002;28;20044;-78
2024/01/02 12:01:08;;;;;;;0.00;0.00;;;11.80;79.90;;;;;;5018288;28;21074;-78
2024/01/02 12:03:52;;;;;;;;;;;11.70;78.60;;;;;;5014046;28;20036;-78
2024/01/02 12:06:51;;;;;;;0.10;0.10;;;11.70;80.00;;;;;;5020048;28;19917;-77
2024/01/02 12:09:18;;;;;;;0.55;0.55;;;11.90;78.50;;;;;;5018764;28;20092;-77
2024/01/02 12:12:11;;;;;;;0.00;0.00;;;11.90;77.70;;;;;;5020923;28;20649;-76
2024/01/02 12:15:10;;;;;;;0.00;0.00;;;11.70;77.90;;;;;;5003009;28;20045;-78
2024/01/02 12:18:03;;;;;;;0.00;0.00;;;11.40;77.20;;;;;;5022008;28;20392;-75
2024/01/02 12:20:35;;;;;;;0.00;0.00;;;11.40;78.00;;;;;;5014020;28;20607;-75
2024/01/02 12:23:01;;;;;;;0.00;0.00;;;11.40;77.60;;;;;;5021744;28;20029;-76
2024/01/02 12:25:27;;;;;;;0.00;0.00;;;11.40;78.30;;;;;;5020039;28;20112;-76
2024/01/02 12:27:54;;;;;;;0.03;0.03;;;11.50;78.30;;;;;;5015278;28;20029;-76
2024/01/02 12:30:30;;;;;;;0.00;0.00;;;11.60;79.20;;;;;;5021111;28;20133;-77
2024/01/02 12:33:12;;;;;;;0.00;0.00;;;11.70;77.40;;;;;;5021309;28;20037;-77
2024/01/02 12:35:55;;;;;;;0.00;0.00;;;11.80;78.00;;;;;;5024990;28;20135;-77
2024/01/02 12:38:21;;;;;;;0.00;0.00;;;11.90;77.00;;;;;;5026365;28;20029;-76
2024/01/02 12:40:48;;;;;;;0.13;0.13;;;11.90;76.00;;;;;;5021634;28;20057;-76
2024/01/02 12:43:22;;;;;;;0.03;0.03;;;11.90;75.10;;;;;;5023232;28;20037;-77
2024/01/02 12:45:57;;;;;;;0.00;0.00;;;11.90;74.60;;;;;;5024724;28;20039;-77
2024/01/02 12:48:26;;;;;;;0.10;0.10;;;11.90;74.70;;;;;;5015835;28;20532;-76
2024/01/02 12:50:54;;;;;;;0.28;0.28;;;11.90;73.90;;;;;;5024755;28;20112;-76
2024/01/02 12:53:25;;;;;;;0.10;0.10;;;12.00;74.70;;;;;;5024953;28;20029;-77
2024/01/02 12:55:57;;;;;;;0.00;0.00;;;12.00;73.00;;;;;;5036688;28;20048;-77
2024/01/02 12:58:25;;;;;;;0.00;0.00;;;12.00;73.70;;;;;;5023871;28;20500;-76
2024/01/02 13:00:51;;;;;;;0.00;0.00;;;12.00;72.40;;;;;;5022672;28;20112;-77
2024/01/02 13:03:17;;;;;;;0.00;0.00;;;12.00;73.20;;;;;;5024939;28;20102;-77
2024/01/02 13:05:43;;;;;;;0.00;0.00;;;12.00;72.00;;;;;;5024550;28;20660;-75